createdAt,value
2017-09-19T00:00:17.160Z,931.76
2017-09-19T00:00:35.937Z,931.79
2017-09-19T00:00:54.692Z,931.73
2017-09-19T00:01:12.951Z,931.76
2017-09-19T00:01:31.726Z,931.79
2017-09-19T00:01:51.275Z,931.81
2017-09-19T00:02:09.909Z,931.78
2017-09-19T00:02:28.199Z,931.8
2017-09-19T00:02:46.475Z,931.79
2017-09-19T00:03:05.797Z,931.77
2017-09-19T00:03:25.081Z,931.73
2017-09-19T00:03:44.353Z,931.75
2017-09-19T00:04:03.094Z,931.73
2017-09-19T00:04:21.836Z,931.76
2017-09-19T00:04:41.127Z,931.71
2017-09-19T00:04:59.879Z,931.77
2017-09-19T00:05:18.647Z,931.73
2017-09-19T00:05:37.936Z,931.75
2017-09-19T00:05:56.675Z,931.75
2017-09-19T00:06:15.958Z,931.76
2017-09-19T00:06:34.708Z,931.76
2017-09-19T00:06:53.470Z,931.78
2017-09-19T00:07:11.160Z,931.78
2017-09-19T00:07:30.435Z,931.78
2017-09-19T00:07:49.194Z,931.8
2017-09-19T00:08:07.979Z,931.82
2017-09-19T00:08:27.267Z,931.73
2017-09-19T00:08:46.093Z,931.78
2017-09-19T00:09:04.955Z,931.81
2017-09-19T00:09:23.203Z,931.8
2017-09-19T00:09:41.951Z,931.8
2017-09-19T00:10:00.715Z,931.8
2017-09-19T00:10:19.479Z,931.85
2017-09-19T00:10:38.748Z,931.83
2017-09-19T00:10:58.045Z,931.84
2017-09-19T00:11:16.285Z,931.8
2017-09-19T00:11:35.574Z,931.82
2017-09-19T00:11:54.347Z,931.85
2017-09-19T00:12:13.120Z,931.88
2017-09-19T00:12:32.403Z,931.87
2017-09-19T00:12:51.921Z,931.84
2017-09-19T00:13:11.195Z,931.86
2017-09-19T00:13:29.975Z,931.87
2017-09-19T00:13:48.206Z,931.87
2017-09-19T00:14:06.981Z,931.9
2017-09-19T00:14:25.764Z,931.88
2017-09-19T00:14:43.998Z,931.93
2017-09-19T00:15:02.227Z,931.9
2017-09-19T00:15:20.954Z,931.89
2017-09-19T00:15:39.167Z,931.88
2017-09-19T00:15:56.891Z,931.92
2017-09-19T00:16:15.098Z,931.9
2017-09-19T00:16:34.355Z,931.87
2017-09-19T00:16:53.108Z,931.92
2017-09-19T00:17:11.853Z,931.93
2017-09-19T00:17:30.582Z,931.95
2017-09-19T00:17:49.307Z,931.93
2017-09-19T00:18:08.564Z,931.88
2017-09-19T00:18:27.260Z,931.92
2017-09-19T00:18:46.463Z,931.95
2017-09-19T00:19:05.214Z,931.93
2017-09-19T00:19:23.438Z,931.94
2017-09-19T00:19:42.168Z,931.94
2017-09-19T00:20:00.890Z,931.96
2017-09-19T00:20:19.632Z,931.95
2017-09-19T00:20:38.362Z,931.97
2017-09-19T00:20:57.083Z,931.96
2017-09-19T00:21:15.800Z,931.96
2017-09-19T00:21:34.518Z,931.97
2017-09-19T00:21:53.237Z,931.97
2017-09-19T00:22:11.997Z,931.91
2017-09-19T00:22:30.754Z,931.93
2017-09-19T00:22:50.013Z,931.91
2017-09-19T00:23:08.199Z,931.91
2017-09-19T00:23:27.407Z,931.89
2017-09-19T00:23:46.682Z,931.89
2017-09-19T00:24:04.881Z,931.86
2017-09-19T00:24:24.169Z,931.88
2017-09-19T00:24:43.424Z,931.89
2017-09-19T00:25:02.677Z,931.9
2017-09-19T00:25:20.907Z,931.84
2017-09-19T00:25:40.152Z,931.9
2017-09-19T00:25:59.357Z,931.86
2017-09-19T00:26:18.589Z,931.86
2017-09-19T00:26:37.307Z,931.86
2017-09-19T00:26:56.539Z,931.86
2017-09-19T00:27:15.260Z,931.87
2017-09-19T00:27:33.977Z,931.87
2017-09-19T00:27:52.740Z,931.85
2017-09-19T00:28:11.994Z,931.87
2017-09-19T00:28:30.714Z,931.82
2017-09-19T00:28:49.961Z,931.81
2017-09-19T00:29:08.690Z,931.81
2017-09-19T00:29:26.889Z,931.83
2017-09-19T00:29:45.605Z,931.82
2017-09-19T00:30:04.353Z,931.82
2017-09-19T00:30:23.080Z,931.83
2017-09-19T00:30:40.790Z,931.85
2017-09-19T00:30:59.530Z,931.89
2017-09-19T00:31:18.284Z,931.83
2017-09-19T00:31:37.563Z,931.84
2017-09-19T00:31:56.282Z,931.86
2017-09-19T00:32:15.533Z,931.87
2017-09-19T00:32:33.765Z,931.82
2017-09-19T00:32:51.567Z,931.84
2017-09-19T00:33:24.427Z,931.83
2017-09-19T00:33:43.412Z,931.91
2017-09-19T00:34:01.896Z,931.85
2017-09-19T00:34:22.241Z,931.82
2017-09-19T00:34:41.556Z,931.85
2017-09-19T00:35:00.933Z,931.85
2017-09-19T00:35:19.213Z,931.84
2017-09-19T00:35:38.906Z,931.84
2017-09-19T00:35:57.803Z,931.84
2017-09-19T00:36:17.436Z,931.9
2017-09-19T00:36:35.362Z,931.8
2017-09-19T00:36:55.363Z,931.83
2017-09-19T00:37:14.645Z,931.87
2017-09-19T00:37:32.387Z,931.84
2017-09-19T00:37:51.110Z,931.86
2017-09-19T00:38:09.825Z,931.85
2017-09-19T00:38:29.079Z,931.88
2017-09-19T00:38:47.793Z,931.86
2017-09-19T00:39:07.021Z,931.9
2017-09-19T00:39:26.294Z,931.88
2017-09-19T00:39:45.032Z,931.9
2017-09-19T00:40:03.293Z,931.91
2017-09-19T00:40:22.049Z,931.9
2017-09-19T00:40:41.323Z,931.91
2017-09-19T00:41:00.586Z,931.91
2017-09-19T00:41:18.863Z,931.92
2017-09-19T00:41:37.562Z,931.92
2017-09-19T00:41:56.841Z,931.89
2017-09-19T00:42:15.044Z,931.9
2017-09-19T00:42:33.800Z,931.9
2017-09-19T00:42:53.056Z,931.89
2017-09-19T00:43:11.276Z,931.86
2017-09-19T00:43:30.045Z,931.85
2017-09-19T00:43:48.808Z,931.85
2017-09-19T00:44:07.012Z,931.86
2017-09-19T00:44:25.761Z,931.87
2017-09-19T00:44:43.988Z,931.86
2017-09-19T00:45:02.706Z,931.87
2017-09-19T00:45:20.387Z,931.89
2017-09-19T00:45:39.203Z,931.88
2017-09-19T00:45:57.407Z,931.83
2017-09-19T00:46:16.136Z,931.89
2017-09-19T00:46:34.867Z,931.88
2017-09-19T00:46:54.214Z,931.86
2017-09-19T00:47:13.489Z,931.84
2017-09-19T00:47:31.680Z,931.84
2017-09-19T00:47:50.911Z,931.9
2017-09-19T00:48:09.649Z,931.87
2017-09-19T00:48:28.932Z,931.88
2017-09-19T00:48:47.635Z,931.85
2017-09-19T00:49:06.881Z,931.87
2017-09-19T00:49:26.128Z,931.87
2017-09-19T00:49:44.330Z,931.88
2017-09-19T00:50:02.029Z,931.87
2017-09-19T00:50:20.238Z,931.91
2017-09-19T00:50:39.004Z,931.87
2017-09-19T00:50:57.785Z,931.93
2017-09-19T00:51:16.520Z,931.89
2017-09-19T00:51:35.288Z,931.89
2017-09-19T00:51:54.762Z,931.91
2017-09-19T00:52:13.619Z,931.9
2017-09-19T00:52:33.132Z,931.87
2017-09-19T00:52:51.828Z,931.87
2017-09-19T00:53:10.550Z,931.88
2017-09-19T00:53:28.763Z,931.87
2017-09-19T00:53:47.474Z,931.92
2017-09-19T00:54:06.263Z,931.91
2017-09-19T00:54:24.988Z,931.89
2017-09-19T00:54:43.715Z,931.84
2017-09-19T00:55:01.925Z,931.88
2017-09-19T00:55:20.647Z,931.85
2017-09-19T00:55:39.861Z,931.82
2017-09-19T00:55:58.593Z,931.84
2017-09-19T00:56:17.827Z,931.82
2017-09-19T00:56:37.084Z,931.83
2017-09-19T00:56:55.783Z,931.78
2017-09-19T00:57:14.518Z,931.81
2017-09-19T00:57:33.792Z,931.85
2017-09-19T00:57:52.593Z,931.86
2017-09-19T00:58:11.848Z,931.81
2017-09-19T00:58:31.083Z,931.8
2017-09-19T00:58:49.293Z,931.86
2017-09-19T00:59:08.006Z,931.82
2017-09-19T00:59:27.230Z,931.81
2017-09-19T00:59:45.424Z,931.83
2017-09-19T01:00:03.093Z,931.87
2017-09-19T01:00:21.314Z,931.83
2017-09-19T01:00:40.046Z,931.88
2017-09-19T01:00:58.779Z,931.88
2017-09-19T01:01:18.028Z,931.85
2017-09-19T01:01:36.747Z,931.89
2017-09-19T01:01:55.505Z,931.87
2017-09-19T01:02:14.262Z,931.9
2017-09-19T01:02:32.962Z,931.9
2017-09-19T01:02:51.678Z,931.88
2017-09-19T01:03:10.953Z,931.88
2017-09-19T01:03:30.194Z,931.9
2017-09-19T01:03:48.933Z,931.9
2017-09-19T01:04:07.628Z,931.9
2017-09-19T01:04:26.385Z,931.87
2017-09-19T01:04:44.571Z,931.9
2017-09-19T01:05:02.782Z,931.88
2017-09-19T01:05:20.958Z,931.89
2017-09-19T01:05:40.191Z,931.87
2017-09-19T01:05:59.413Z,931.86
2017-09-19T01:06:18.699Z,931.88
2017-09-19T01:06:37.939Z,931.84
2017-09-19T01:06:57.178Z,931.85
2017-09-19T01:07:15.363Z,931.83
2017-09-19T01:07:34.091Z,931.85
2017-09-19T01:07:52.844Z,931.87
2017-09-19T01:08:12.069Z,931.88
2017-09-19T01:08:30.779Z,931.88
2017-09-19T01:08:49.477Z,931.87
2017-09-19T01:09:08.175Z,931.87
2017-09-19T01:09:26.389Z,931.89
2017-09-19T01:09:45.656Z,931.87
2017-09-19T01:10:03.861Z,931.88
2017-09-19T01:10:22.078Z,931.87
2017-09-19T01:10:40.807Z,931.86
2017-09-19T01:10:59.004Z,931.85
2017-09-19T01:11:18.224Z,931.8
2017-09-19T01:11:35.889Z,931.81
2017-09-19T01:11:54.091Z,931.82
2017-09-19T01:12:13.343Z,931.84
2017-09-19T01:12:32.581Z,931.81
2017-09-19T01:12:51.309Z,931.82
2017-09-19T01:13:08.968Z,931.83
2017-09-19T01:13:27.156Z,931.85
2017-09-19T01:13:45.862Z,931.78
2017-09-19T01:14:04.595Z,931.83
2017-09-19T01:14:23.322Z,931.83
2017-09-19T01:14:42.082Z,931.84
2017-09-19T01:15:00.802Z,931.78
2017-09-19T01:15:18.503Z,931.78
2017-09-19T01:15:37.230Z,931.78
2017-09-19T01:15:55.413Z,931.78
2017-09-19T01:16:14.126Z,931.78
2017-09-19T01:16:32.862Z,931.78
2017-09-19T01:16:52.116Z,931.81
2017-09-19T01:17:10.307Z,931.81
2017-09-19T01:17:29.052Z,931.8
2017-09-19T01:17:47.771Z,931.78
2017-09-19T01:18:05.989Z,931.78
2017-09-19T01:18:24.702Z,931.72
2017-09-19T01:18:42.924Z,931.78
2017-09-19T01:19:02.162Z,931.74
2017-09-19T01:19:20.867Z,931.76
2017-09-19T01:19:39.070Z,931.73
2017-09-19T01:19:58.340Z,931.74
2017-09-19T01:20:17.573Z,931.76
2017-09-19T01:20:35.776Z,931.71
2017-09-19T01:20:54.485Z,931.73
2017-09-19T01:21:13.213Z,931.73
2017-09-19T01:21:32.475Z,931.7
2017-09-19T01:21:51.723Z,931.69
2017-09-19T01:22:11.881Z,931.71
2017-09-19T01:22:31.909Z,931.71
2017-09-19T01:22:53.176Z,931.69
2017-09-19T01:23:13.529Z,931.72
2017-09-19T01:23:34.647Z,931.69
2017-09-19T01:23:55.194Z,931.64
2017-09-19T01:24:14.635Z,931.66
2017-09-19T01:24:36.805Z,931.68
2017-09-19T01:24:55.029Z,931.73
2017-09-19T01:25:14.282Z,931.7
2017-09-19T01:25:33.004Z,931.7
2017-09-19T01:25:52.248Z,931.73
2017-09-19T01:26:11.003Z,931.72
2017-09-19T01:26:30.240Z,931.73
2017-09-19T01:26:49.203Z,931.7
2017-09-19T01:27:07.940Z,931.69
2017-09-19T01:27:26.651Z,931.67
2017-09-19T01:27:45.883Z,931.7
2017-09-19T01:28:05.149Z,931.66
2017-09-19T01:28:23.865Z,931.67
2017-09-19T01:28:43.109Z,931.69
2017-09-19T01:29:01.814Z,931.67
2017-09-19T01:29:21.051Z,931.63
2017-09-19T01:29:40.294Z,931.63
2017-09-19T01:29:59.027Z,931.68
2017-09-19T01:30:18.279Z,931.63
2017-09-19T01:30:36.485Z,931.69
2017-09-19T01:30:55.263Z,931.65
2017-09-19T01:31:14.000Z,931.68
2017-09-19T01:31:32.704Z,931.7
2017-09-19T01:31:51.398Z,931.64
2017-09-19T01:32:10.105Z,931.68
2017-09-19T01:32:28.810Z,931.7
2017-09-19T01:32:47.516Z,931.65
2017-09-19T01:33:06.302Z,931.65
2017-09-19T01:33:25.004Z,931.7
2017-09-19T01:33:43.218Z,931.66
2017-09-19T01:34:02.686Z,931.64
2017-09-19T01:34:21.403Z,931.68
2017-09-19T01:34:40.232Z,931.65
2017-09-19T01:34:58.967Z,931.67
2017-09-19T01:35:17.666Z,931.7
2017-09-19T01:35:36.384Z,931.65
2017-09-19T01:35:55.606Z,931.69
2017-09-19T01:36:13.783Z,931.67
2017-09-19T01:36:33.014Z,931.64
2017-09-19T01:36:52.282Z,931.67
2017-09-19T01:37:11.028Z,931.62
2017-09-19T01:37:30.257Z,931.63
2017-09-19T01:37:49.478Z,931.66
2017-09-19T01:38:07.137Z,931.67
2017-09-19T01:38:25.862Z,931.65
2017-09-19T01:38:44.577Z,931.65
2017-09-19T01:39:02.766Z,931.69
2017-09-19T01:39:21.478Z,931.66
2017-09-19T01:39:39.657Z,931.66
2017-09-19T01:39:58.394Z,931.71
2017-09-19T01:40:17.093Z,931.71
2017-09-19T01:40:35.300Z,931.68
2017-09-19T01:40:54.515Z,931.65
2017-09-19T01:41:13.248Z,931.65
2017-09-19T01:41:30.959Z,931.67
2017-09-19T01:41:50.215Z,931.65
2017-09-19T01:42:08.437Z,931.7
2017-09-19T01:42:27.179Z,931.69
2017-09-19T01:42:45.410Z,931.71
2017-09-19T01:43:04.829Z,931.68
2017-09-19T01:43:24.071Z,931.67
2017-09-19T01:43:42.817Z,931.69
2017-09-19T01:44:02.046Z,931.66
2017-09-19T01:44:21.284Z,931.68
2017-09-19T01:44:39.471Z,931.68
2017-09-19T01:44:58.212Z,931.62
2017-09-19T01:45:16.432Z,931.66
2017-09-19T01:45:35.678Z,931.66
2017-09-19T01:45:54.399Z,931.69
2017-09-19T01:46:13.109Z,931.67
2017-09-19T01:46:32.305Z,931.69
2017-09-19T01:46:51.047Z,931.68
2017-09-19T01:47:09.266Z,931.68
2017-09-19T01:47:28.020Z,931.68
2017-09-19T01:47:46.741Z,931.71
2017-09-19T01:48:05.464Z,931.66
2017-09-19T01:48:24.162Z,931.67
2017-09-19T01:48:43.403Z,931.68
2017-09-19T01:49:02.110Z,931.7
2017-09-19T01:49:21.364Z,931.69
2017-09-19T01:49:40.088Z,931.73
2017-09-19T01:49:58.272Z,931.74
2017-09-19T01:50:16.499Z,931.77
2017-09-19T01:50:34.695Z,931.75
2017-09-19T01:50:53.428Z,931.75
2017-09-19T01:51:12.131Z,931.75
2017-09-19T01:51:31.371Z,931.76
2017-09-19T01:51:50.606Z,931.77
2017-09-19T01:52:09.339Z,931.76
2017-09-19T01:52:28.073Z,931.78
2017-09-19T01:52:46.798Z,931.76
2017-09-19T01:53:06.056Z,931.8
2017-09-19T01:53:25.277Z,931.76
2017-09-19T01:53:43.989Z,931.75
2017-09-19T01:54:02.731Z,931.76
2017-09-19T01:54:20.927Z,931.76
2017-09-19T01:54:40.158Z,931.74
2017-09-19T01:54:59.428Z,931.74
2017-09-19T01:55:18.137Z,931.73
2017-09-19T01:55:36.347Z,931.69
2017-09-19T01:55:54.531Z,931.7
2017-09-19T01:56:13.248Z,931.74
2017-09-19T01:56:32.160Z,931.72
2017-09-19T01:56:51.405Z,931.72
2017-09-19T01:57:10.684Z,931.69
2017-09-19T01:57:29.444Z,931.72
2017-09-19T01:57:48.250Z,931.71
2017-09-19T01:58:06.621Z,931.71
2017-09-19T01:58:25.866Z,931.67
2017-09-19T01:58:45.110Z,931.66
2017-09-19T01:59:03.855Z,931.67
2017-09-19T01:59:23.085Z,931.67
2017-09-19T01:59:42.339Z,931.66
2017-09-19T02:00:00.522Z,931.64
2017-09-19T02:00:19.770Z,931.7
2017-09-19T02:00:38.484Z,931.66
2017-09-19T02:00:57.242Z,931.66
2017-09-19T02:01:15.951Z,931.67
2017-09-19T02:01:34.244Z,931.68
2017-09-19T02:01:53.522Z,931.69
2017-09-19T02:02:12.423Z,931.7
2017-09-19T02:02:32.489Z,931.69
2017-09-19T02:02:52.742Z,931.68
2017-09-19T02:03:26.219Z,931.67
2017-09-19T02:03:46.016Z,931.7
2017-09-19T02:04:08.073Z,931.72
2017-09-19T02:04:30.020Z,931.7
2017-09-19T02:04:49.249Z,931.7
2017-09-19T02:05:07.992Z,931.71
2017-09-19T02:05:26.682Z,931.7
2017-09-19T02:05:45.917Z,931.73
2017-09-19T02:06:04.622Z,931.74
2017-09-19T02:06:23.331Z,931.72
2017-09-19T02:06:42.032Z,931.74
2017-09-19T02:07:01.239Z,931.76
2017-09-19T02:07:19.429Z,931.75
2017-09-19T02:07:38.145Z,931.75
2017-09-19T02:07:56.345Z,931.75
2017-09-19T02:08:14.546Z,931.72
2017-09-19T02:08:33.238Z,931.74
2017-09-19T02:08:52.451Z,931.75
2017-09-19T02:09:11.174Z,931.76
2017-09-19T02:09:29.895Z,931.72
2017-09-19T02:09:49.140Z,931.74
2017-09-19T02:10:07.345Z,931.73
2017-09-19T02:10:26.075Z,931.71
2017-09-19T02:10:44.777Z,931.76
2017-09-19T02:11:02.981Z,931.72
2017-09-19T02:11:22.206Z,931.75
2017-09-19T02:11:40.905Z,931.77
2017-09-19T02:11:59.094Z,931.71
2017-09-19T02:12:18.335Z,931.76
2017-09-19T02:12:37.584Z,931.76
2017-09-19T02:12:56.809Z,931.76
2017-09-19T02:13:15.543Z,931.79
2017-09-19T02:13:33.740Z,931.74
2017-09-19T02:13:51.931Z,931.76
2017-09-19T02:14:11.156Z,931.78
2017-09-19T02:14:30.400Z,931.75
2017-09-19T02:14:49.126Z,931.76
2017-09-19T02:15:08.367Z,931.74
2017-09-19T02:15:27.081Z,931.74
2017-09-19T02:15:45.788Z,931.69
2017-09-19T02:16:03.976Z,931.71
2017-09-19T02:16:23.221Z,931.7
2017-09-19T02:16:42.147Z,931.73
2017-09-19T02:17:01.362Z,931.69
2017-09-19T02:17:20.604Z,931.71
2017-09-19T02:17:39.332Z,931.69
2017-09-19T02:17:57.525Z,931.71
2017-09-19T02:18:16.259Z,931.69
2017-09-19T02:18:33.438Z,931.72
2017-09-19T02:18:52.168Z,931.7
2017-09-19T02:19:10.870Z,931.67
2017-09-19T02:19:30.105Z,931.69
2017-09-19T02:19:48.805Z,931.68
2017-09-19T02:20:08.041Z,931.67
2017-09-19T02:20:26.791Z,931.67
2017-09-19T02:20:44.478Z,931.64
2017-09-19T02:21:03.714Z,931.65
2017-09-19T02:21:21.931Z,931.62
2017-09-19T02:21:40.128Z,931.66
2017-09-19T02:21:58.322Z,931.65
2017-09-19T02:22:17.536Z,931.65
2017-09-19T02:22:36.747Z,931.66
2017-09-19T02:22:55.456Z,931.65
2017-09-19T02:23:14.167Z,931.63
2017-09-19T02:23:32.893Z,931.64
2017-09-19T02:23:52.138Z,931.65
2017-09-19T02:24:10.330Z,931.66
2017-09-19T02:24:29.037Z,931.65
2017-09-19T02:24:47.758Z,931.69
2017-09-19T02:25:06.984Z,931.65
2017-09-19T02:25:24.672Z,931.67
2017-09-19T02:25:43.381Z,931.67
2017-09-19T02:26:02.621Z,931.67
2017-09-19T02:26:21.877Z,931.6
2017-09-19T02:26:41.118Z,931.63
2017-09-19T02:26:59.820Z,931.64
2017-09-19T02:27:18.021Z,931.62
2017-09-19T02:27:37.253Z,931.63
2017-09-19T02:27:55.979Z,931.61
2017-09-19T02:28:14.698Z,931.59
2017-09-19T02:28:33.931Z,931.6
2017-09-19T02:28:52.649Z,931.58
2017-09-19T02:29:11.368Z,931.59
2017-09-19T02:29:30.082Z,931.61
2017-09-19T02:29:48.788Z,931.62
2017-09-19T02:30:07.497Z,931.62
2017-09-19T02:30:26.758Z,931.61
2017-09-19T02:30:46.023Z,931.59
2017-09-19T02:31:04.235Z,931.57
2017-09-19T02:31:23.462Z,931.6
2017-09-19T02:31:42.728Z,931.59
2017-09-19T02:32:00.943Z,931.6
2017-09-19T02:32:19.645Z,931.57
2017-09-19T02:32:38.880Z,931.61
2017-09-19T02:32:58.118Z,931.61
2017-09-19T02:33:16.837Z,931.58
2017-09-19T02:33:35.602Z,931.6
2017-09-19T02:33:54.321Z,931.61
2017-09-19T02:34:12.525Z,931.6
2017-09-19T02:34:31.263Z,931.61
2017-09-19T02:34:50.500Z,931.6
2017-09-19T02:35:09.249Z,931.62
2017-09-19T02:35:28.519Z,931.6
2017-09-19T02:35:47.246Z,931.55
2017-09-19T02:36:06.084Z,931.59
2017-09-19T02:36:24.302Z,931.55
2017-09-19T02:36:42.574Z,931.54
2017-09-19T02:37:00.788Z,931.6
2017-09-19T02:37:18.971Z,931.56
2017-09-19T02:37:38.033Z,931.57
2017-09-19T02:37:57.280Z,931.56
2017-09-19T02:38:15.014Z,931.56
2017-09-19T02:38:34.246Z,931.56
2017-09-19T02:38:53.124Z,931.6
2017-09-19T02:39:12.328Z,931.53
2017-09-19T02:39:30.546Z,931.58
2017-09-19T02:39:49.783Z,931.57
2017-09-19T02:40:07.972Z,931.55
2017-09-19T02:40:26.690Z,931.55
2017-09-19T02:40:45.433Z,931.56
2017-09-19T02:41:04.684Z,931.51
2017-09-19T02:41:22.410Z,931.52
2017-09-19T02:41:41.653Z,931.52
2017-09-19T02:42:00.418Z,931.53
2017-09-19T02:42:18.622Z,931.56
2017-09-19T02:42:37.870Z,931.49
2017-09-19T02:42:57.098Z,931.51
2017-09-19T02:43:16.385Z,931.53
2017-09-19T02:43:35.094Z,931.53
2017-09-19T02:43:53.297Z,931.55
2017-09-19T02:44:12.055Z,931.56
2017-09-19T02:44:30.768Z,931.56
2017-09-19T02:44:49.492Z,931.53
2017-09-19T02:45:08.196Z,931.51
2017-09-19T02:45:27.409Z,931.51
2017-09-19T02:45:46.681Z,931.49
2017-09-19T02:46:05.927Z,931.5
2017-09-19T02:46:24.183Z,931.49
2017-09-19T02:46:42.892Z,931.52
2017-09-19T02:47:02.133Z,931.5
2017-09-19T02:47:20.887Z,931.51
2017-09-19T02:47:39.624Z,931.51
2017-09-19T02:47:58.871Z,931.46
2017-09-19T02:48:17.377Z,931.46
2017-09-19T02:48:36.738Z,931.47
2017-09-19T02:48:56.000Z,931.48
2017-09-19T02:49:14.189Z,931.47
2017-09-19T02:49:33.453Z,931.47
2017-09-19T02:49:52.686Z,931.49
2017-09-19T02:50:10.985Z,931.51
2017-09-19T02:50:30.222Z,931.48
2017-09-19T02:50:48.425Z,931.44
2017-09-19T02:51:07.674Z,931.47
2017-09-19T02:51:25.343Z,931.45
2017-09-19T02:51:44.073Z,931.46
2017-09-19T02:52:02.796Z,931.41
2017-09-19T02:52:21.069Z,931.41
2017-09-19T02:52:40.067Z,931.44
2017-09-19T02:52:58.280Z,931.43
2017-09-19T02:53:15.954Z,931.4
2017-09-19T02:53:34.745Z,931.43
2017-09-19T02:53:53.474Z,931.4
2017-09-19T02:54:12.202Z,931.38
2017-09-19T02:54:31.449Z,931.38
2017-09-19T02:54:49.677Z,931.42
2017-09-19T02:55:08.969Z,931.39
2017-09-19T02:55:28.195Z,931.42
2017-09-19T02:55:46.928Z,931.4
2017-09-19T02:56:05.656Z,931.39
2017-09-19T02:56:24.906Z,931.4
2017-09-19T02:56:44.898Z,931.38
2017-09-19T02:57:04.213Z,931.41
2017-09-19T02:57:22.408Z,931.35
2017-09-19T02:57:40.610Z,931.37
2017-09-19T02:57:59.308Z,931.36
2017-09-19T02:58:18.015Z,931.41
2017-09-19T02:58:36.769Z,931.4
2017-09-19T02:58:55.472Z,931.35
2017-09-19T02:59:14.175Z,931.37
2017-09-19T02:59:33.436Z,931.34
2017-09-19T02:59:51.639Z,931.38
2017-09-19T03:00:09.813Z,931.32
2017-09-19T03:00:29.026Z,931.34
2017-09-19T03:00:47.736Z,931.33
2017-09-19T03:01:06.481Z,931.33
2017-09-19T03:01:24.716Z,931.31
2017-09-19T03:01:43.986Z,931.32
2017-09-19T03:02:01.674Z,931.31
2017-09-19T03:02:20.396Z,931.34
2017-09-19T03:02:39.634Z,931.36
2017-09-19T03:02:57.311Z,931.32
2017-09-19T03:03:16.574Z,931.33
2017-09-19T03:03:33.740Z,931.3
2017-09-19T03:03:52.447Z,931.35
2017-09-19T03:04:11.639Z,931.35
2017-09-19T03:04:30.873Z,931.32
2017-09-19T03:04:50.115Z,931.28
2017-09-19T03:05:08.821Z,931.28
2017-09-19T03:05:28.202Z,931.3
2017-09-19T03:05:47.456Z,931.31
2017-09-19T03:06:06.718Z,931.33
2017-09-19T03:06:26.011Z,931.32
2017-09-19T03:06:45.264Z,931.28
2017-09-19T03:07:04.494Z,931.31
2017-09-19T03:07:23.745Z,931.33
2017-09-19T03:07:43.052Z,931.26
2017-09-19T03:08:01.763Z,931.27
2017-09-19T03:08:21.008Z,931.27
2017-09-19T03:08:39.235Z,931.24
2017-09-19T03:08:57.961Z,931.25
2017-09-19T03:09:16.705Z,931.28
2017-09-19T03:09:35.922Z,931.27
2017-09-19T03:09:55.159Z,931.26
2017-09-19T03:10:13.552Z,931.28
2017-09-19T03:10:32.333Z,931.29
2017-09-19T03:10:51.057Z,931.28
2017-09-19T03:11:11.533Z,931.29
2017-09-19T03:11:29.896Z,931.29
2017-09-19T03:11:49.335Z,931.27
2017-09-19T03:12:08.622Z,931.26
2017-09-19T03:12:27.926Z,931.27
2017-09-19T03:12:47.366Z,931.25
2017-09-19T03:13:06.651Z,931.24
2017-09-19T03:13:25.383Z,931.29
2017-09-19T03:13:44.149Z,931.27
2017-09-19T03:14:03.358Z,931.25
2017-09-19T03:14:23.391Z,931.31
2017-09-19T03:14:42.098Z,931.29
2017-09-19T03:15:00.298Z,931.26
2017-09-19T03:15:19.002Z,931.26
2017-09-19T03:15:37.213Z,931.27
2017-09-19T03:15:55.988Z,931.26
2017-09-19T03:16:15.283Z,931.29
2017-09-19T03:16:34.906Z,931.26
2017-09-19T03:16:53.634Z,931.29
2017-09-19T03:17:11.822Z,931.32
2017-09-19T03:17:31.057Z,931.28
2017-09-19T03:17:50.300Z,931.26
2017-09-19T03:18:09.572Z,931.29
2017-09-19T03:18:28.814Z,931.3
2017-09-19T03:18:47.534Z,931.29
2017-09-19T03:19:05.762Z,931.28
2017-09-19T03:19:23.967Z,931.29
2017-09-19T03:19:41.649Z,931.28
2017-09-19T03:19:59.852Z,931.28
2017-09-19T03:20:18.557Z,931.28
2017-09-19T03:20:36.760Z,931.3
2017-09-19T03:20:55.479Z,931.33
2017-09-19T03:21:14.212Z,931.31
2017-09-19T03:21:33.031Z,931.33
2017-09-19T03:21:52.330Z,931.31
2017-09-19T03:22:11.022Z,931.32
2017-09-19T03:22:29.749Z,931.3
2017-09-19T03:22:47.981Z,931.31
2017-09-19T03:23:06.678Z,931.31
2017-09-19T03:23:25.918Z,931.28
2017-09-19T03:23:45.132Z,931.29
2017-09-19T03:24:03.836Z,931.29
2017-09-19T03:24:22.607Z,931.25
2017-09-19T03:24:41.339Z,931.25
2017-09-19T03:25:00.585Z,931.27
2017-09-19T03:25:18.800Z,931.26
2017-09-19T03:25:37.007Z,931.27
2017-09-19T03:25:56.269Z,931.25
2017-09-19T03:26:14.992Z,931.26
2017-09-19T03:26:33.697Z,931.25
2017-09-19T03:26:52.410Z,931.25
2017-09-19T03:27:11.698Z,931.24
2017-09-19T03:27:30.924Z,931.24
2017-09-19T03:27:49.128Z,931.23
2017-09-19T03:28:08.365Z,931.22
2017-09-19T03:28:27.141Z,931.19
2017-09-19T03:28:45.849Z,931.2
2017-09-19T03:29:05.100Z,931.23
2017-09-19T03:29:23.795Z,931.21
2017-09-19T03:29:42.519Z,931.2
2017-09-19T03:30:01.242Z,931.14
2017-09-19T03:30:19.970Z,931.16
2017-09-19T03:30:39.226Z,931.18
2017-09-19T03:30:57.942Z,931.12
2017-09-19T03:31:16.662Z,931.15
2017-09-19T03:31:35.892Z,931.17
2017-09-19T03:31:55.126Z,931.19
2017-09-19T03:32:14.360Z,931.2
2017-09-19T03:32:33.083Z,931.15
2017-09-19T03:32:51.879Z,931.17
2017-09-19T03:33:11.091Z,931.18
2017-09-19T03:33:29.287Z,931.15
2017-09-19T03:33:47.485Z,931.16
2017-09-19T03:34:06.717Z,931.14
2017-09-19T03:34:25.441Z,931.15
2017-09-19T03:34:44.156Z,931.14
2017-09-19T03:35:02.865Z,931.14
2017-09-19T03:35:21.567Z,931.17
2017-09-19T03:35:40.291Z,931.16
2017-09-19T03:35:58.505Z,931.17
2017-09-19T03:36:16.703Z,931.15
2017-09-19T03:36:35.918Z,931.14
2017-09-19T03:36:55.133Z,931.12
2017-09-19T03:37:13.874Z,931.15
2017-09-19T03:37:33.115Z,931.14
2017-09-19T03:37:50.798Z,931.14
2017-09-19T03:38:09.519Z,931.13
2017-09-19T03:38:28.241Z,931.13
2017-09-19T03:38:46.956Z,931.12
2017-09-19T03:39:06.179Z,931.12
2017-09-19T03:39:25.388Z,931.13
2017-09-19T03:39:44.658Z,931.11
2017-09-19T03:40:03.931Z,931.1
2017-09-19T03:40:23.176Z,931.11
2017-09-19T03:40:42.421Z,931.13
2017-09-19T03:41:01.168Z,931.1
2017-09-19T03:41:19.882Z,931.09
2017-09-19T03:41:39.129Z,931.1
2017-09-19T03:41:57.860Z,931.13
2017-09-19T03:42:16.052Z,931.08
2017-09-19T03:42:34.773Z,931.08
2017-09-19T03:42:53.994Z,931.1
2017-09-19T03:43:12.694Z,931.07
2017-09-19T03:43:31.408Z,931.01
2017-09-19T03:43:50.126Z,931.06
2017-09-19T03:44:07.796Z,931.07
2017-09-19T03:44:27.042Z,931.05
2017-09-19T03:44:45.769Z,931.04
2017-09-19T03:45:04.489Z,931.06
2017-09-19T03:45:23.220Z,931.06
2017-09-19T03:45:41.952Z,931.01
2017-09-19T03:46:00.135Z,931.03
2017-09-19T03:46:19.368Z,931
2017-09-19T03:46:38.090Z,931.05
2017-09-19T03:46:57.313Z,930.98
2017-09-19T03:47:16.007Z,930.99
2017-09-19T03:47:34.195Z,931.01
2017-09-19T03:47:53.414Z,931
2017-09-19T03:48:12.117Z,931.04
2017-09-19T03:48:30.838Z,931.03
2017-09-19T03:48:50.143Z,931.04
2017-09-19T03:49:08.876Z,931.04
2017-09-19T03:49:27.076Z,931.02
2017-09-19T03:49:46.313Z,931.01
2017-09-19T03:50:05.579Z,931.05
2017-09-19T03:50:24.327Z,931.04
2017-09-19T03:50:43.062Z,931.05
2017-09-19T03:51:02.285Z,931.04
2017-09-19T03:51:21.058Z,931.05
2017-09-19T03:51:39.788Z,931.05
2017-09-19T03:51:58.512Z,931.04
2017-09-19T03:52:17.237Z,931.02
2017-09-19T03:52:36.464Z,931.05
2017-09-19T03:52:55.679Z,931.03
2017-09-19T03:53:14.917Z,931
2017-09-19T03:53:33.122Z,931.01
2017-09-19T03:53:51.835Z,931.05
2017-09-19T03:54:10.548Z,930.99
2017-09-19T03:54:29.777Z,930.99
2017-09-19T03:54:49.002Z,931
2017-09-19T03:55:07.718Z,931.01
2017-09-19T03:55:26.955Z,931
2017-09-19T03:55:46.156Z,930.99
2017-09-19T03:56:04.866Z,930.98
2017-09-19T03:56:24.090Z,930.99